createdAt,value
2022-12-29T00:00:38.880Z,25.70
2022-12-29T00:03:13.845Z,24.47
2022-12-29T00:05:44.279Z,26.63
2022-12-29T00:08:14.606Z,26.07
2022-12-29T00:10:45.241Z,29.43
2022-12-29T00:13:31.709Z,29.90
2022-12-29T00:16:00.668Z,29.07
2022-12-29T00:18:29.825Z,32.20
2022-12-29T00:21:16.138Z,30.97
2022-12-29T00:24:04.389Z,30.57
2022-12-29T00:26:50.892Z,29.77
2022-12-29T00:29:37.908Z,33.97
2022-12-29T00:32:26.679Z,35.53
2022-12-29T00:35:10.726Z,36.70
2022-12-29T00:38:00.205Z,38.73
2022-12-29T00:40:46.741Z,42.30
2022-12-29T00:43:33.217Z,39.20
2022-12-29T00:46:01.868Z,37.27
2022-12-29T00:48:48.648Z,37.60
2022-12-29T00:51:17.347Z,37.73
2022-12-29T00:53:47.057Z,33.27
2022-12-29T00:56:16.082Z,37.43
2022-12-29T00:58:46.562Z,37.23
2022-12-29T01:01:15.345Z,40.07
2022-12-29T01:03:44.115Z,34.57
2022-12-29T01:06:13.627Z,34.67
2022-12-29T01:08:42.911Z,38.23
2022-12-29T01:11:14.202Z,37.60
2022-12-29T01:13:44.485Z,35.03
2022-12-29T01:16:13.329Z,34.87
2022-12-29T01:18:42.127Z,36.33
2022-12-29T01:21:13.664Z,33.07
2022-12-29T01:23:49.909Z,35.30
2022-12-29T01:26:19.679Z,32.33
2022-12-29T01:28:54.527Z,26.73
2022-12-29T01:31:23.596Z,27.07
2022-12-29T01:33:52.931Z,30.27
2022-12-29T01:36:22.004Z,31.20
2022-12-29T01:38:52.224Z,28.33
2022-12-29T01:41:21.381Z,29.23
2022-12-29T01:43:52.688Z,32.00
2022-12-29T01:46:42.060Z,26.27
2022-12-29T01:49:16.178Z,27.83
2022-12-29T01:51:49.629Z,26.70
2022-12-29T01:54:24.162Z,26.33
2022-12-29T01:56:55.891Z,25.53
2022-12-29T01:59:27.617Z,24.67
2022-12-29T02:01:59.298Z,27.70
2022-12-29T02:04:33.258Z,27.50
2022-12-29T02:07:09.270Z,25.97
2022-12-29T02:09:38.538Z,25.00
2022-12-29T02:12:09.574Z,26.37
2022-12-29T02:14:38.375Z,27.43
2022-12-29T02:17:21.994Z,23.03
2022-12-29T02:20:02.531Z,32.27
2022-12-29T02:22:56.554Z,25.90
2022-12-29T02:25:57.078Z,25.23
2022-12-29T02:28:37.424Z,24.27
2022-12-29T02:31:21.064Z,23.70
2022-12-29T02:33:58.720Z,26.03
2022-12-29T02:36:57.833Z,27.27
2022-12-29T02:39:44.231Z,23.80
2022-12-29T02:42:18.809Z,25.03
2022-12-29T02:45:08.551Z,27.20
2022-12-29T02:47:42.950Z,26.53
2022-12-29T02:50:26.715Z,25.47
2022-12-29T02:53:01.133Z,23.10
2022-12-29T02:55:29.822Z,25.80
2022-12-29T02:58:19.653Z,22.63
2022-12-29T03:00:57.707Z,24.43
2022-12-29T03:03:44.299Z,23.50
2022-12-29T03:06:34.360Z,25.13
2022-12-29T03:09:19.178Z,25.53
2022-12-29T03:12:00.136Z,29.17
2022-12-29T03:14:49.412Z,24.53
2022-12-29T03:17:37.659Z,25.10
2022-12-29T03:20:12.278Z,29.83
2022-12-29T03:22:43.840Z,22.40
2022-12-29T03:25:33.545Z,25.80
2022-12-29T03:28:09.007Z,26.83
2022-12-29T03:30:40.433Z,27.80
2022-12-29T03:33:12.127Z,26.43
2022-12-29T03:35:48.472Z,24.70
2022-12-29T03:38:20.030Z,25.30
2022-12-29T03:40:54.514Z,31.20
2022-12-29T03:43:23.497Z,28.73
2022-12-29T03:45:52.172Z,33.97
2022-12-29T03:48:21.085Z,31.83
2022-12-29T03:50:49.710Z,29.80
2022-12-29T03:53:18.712Z,32.37
2022-12-29T03:55:47.656Z,29.93
2022-12-29T03:58:16.287Z,32.00
2022-12-29T04:00:46.621Z,32.70
2022-12-29T04:03:15.300Z,32.13
2022-12-29T04:05:43.910Z,29.03
2022-12-29T04:08:12.616Z,33.13
2022-12-29T04:10:41.437Z,34.33
2022-12-29T04:13:10.065Z,32.40
2022-12-29T04:15:40.345Z,33.67
2022-12-29T04:18:09.046Z,33.47
2022-12-29T04:20:41.770Z,33.30
2022-12-29T04:23:10.919Z,35.30
2022-12-29T04:25:41.062Z,32.37
2022-12-29T04:28:09.741Z,40.57
2022-12-29T04:30:38.567Z,34.83
2022-12-29T04:33:07.113Z,35.03
2022-12-29T04:35:36.372Z,34.90
2022-12-29T04:38:05.529Z,34.57
2022-12-29T04:40:34.241Z,34.07
2022-12-29T04:43:03.148Z,33.13
2022-12-29T04:45:31.872Z,37.90
2022-12-29T04:48:00.674Z,35.03
2022-12-29T04:50:30.403Z,36.13
2022-12-29T04:52:59.142Z,38.50
2022-12-29T04:55:28.194Z,36.00
2022-12-29T04:58:08.201Z,39.23
2022-12-29T05:00:48.658Z,37.83
2022-12-29T05:03:25.932Z,34.30
2022-12-29T05:06:04.959Z,38.17
2022-12-29T05:08:35.836Z,36.97
2022-12-29T05:11:07.864Z,41.13
2022-12-29T05:13:38.801Z,44.87
2022-12-29T05:16:12.945Z,43.60
2022-12-29T05:18:42.254Z,33.40
2022-12-29T05:21:15.604Z,35.53
2022-12-29T05:23:48.013Z,42.57
2022-12-29T05:26:20.174Z,38.03
2022-12-29T05:28:56.003Z,41.60
2022-12-29T05:31:48.216Z,30.40
2022-12-29T05:34:34.629Z,37.10
2022-12-29T05:37:01.182Z,36.37
2022-12-29T05:39:34.307Z,39.30
2022-12-29T05:42:06.721Z,30.43
2022-12-29T05:44:47.744Z,35.67
2022-12-29T05:47:18.534Z,35.50
2022-12-29T05:49:52.155Z,31.40
2022-12-29T05:52:50.144Z,29.80
2022-12-29T05:55:28.464Z,28.80
2022-12-29T05:58:04.678Z,36.17
2022-12-29T06:00:41.541Z,38.83
2022-12-29T06:03:09.404Z,38.57
2022-12-29T06:05:42.125Z,38.80
2022-12-29T06:08:24.096Z,34.63
2022-12-29T06:11:12.321Z,33.97
2022-12-29T06:13:45.464Z,33.73
2022-12-29T06:16:19.335Z,35.83
2022-12-29T06:18:55.116Z,27.87
2022-12-29T06:21:33.450Z,34.63
2022-12-29T06:24:05.672Z,28.97
2022-12-29T06:26:38.299Z,31.47
2022-12-29T06:29:13.182Z,35.93
2022-12-29T06:31:54.778Z,32.70
2022-12-29T06:34:27.857Z,32.20
2022-12-29T06:37:04.066Z,38.17
2022-12-29T06:43:02.890Z,27.27
2022-12-29T06:45:37.732Z,36.27
2022-12-29T06:48:10.671Z,28.20
2022-12-29T06:50:54.915Z,31.87
2022-12-29T06:53:27.024Z,32.33
2022-12-29T06:56:22.483Z,30.37
2022-12-29T07:08:35.594Z,31.43
2022-12-29T07:11:16.238Z,35.07
2022-12-29T07:14:12.345Z,36.77
2022-12-29T07:17:10.285Z,57.00
2022-12-29T07:19:40.194Z,42.07
2022-12-29T07:28:04.730Z,43.30
2022-12-29T07:31:05.638Z,40.87
2022-12-29T07:33:10.846Z,41.27
2022-12-29T07:35:39.955Z,42.00
2022-12-29T07:38:21.048Z,41.90
2022-12-29T07:40:49.480Z,42.23
2022-12-29T07:43:29.287Z,35.60
2022-12-29T07:49:19.818Z,42.57
2022-12-29T07:51:56.331Z,38.27
2022-12-29T07:54:43.645Z,45.13
2022-12-29T07:57:29.663Z,38.07
2022-12-29T07:59:58.562Z,36.10
2022-12-29T08:02:56.589Z,35.10
2022-12-29T08:07:12.927Z,47.77
2022-12-29T08:08:48.028Z,39.47
2022-12-29T08:11:43.668Z,34.23
2022-12-29T08:20:15.901Z,35.33
2022-12-29T08:20:55.835Z,31.10
2022-12-29T08:23:03.305Z,31.40
2022-12-29T08:25:45.283Z,30.13
2022-12-29T08:28:41.751Z,33.23
2022-12-29T08:31:20.314Z,31.17
2022-12-29T08:38:16.539Z,35.23
2022-12-29T08:49:16.264Z,34.13
2022-12-29T08:51:54.416Z,30.00
2022-12-29T08:54:18.121Z,35.73
2022-12-29T08:56:56.934Z,33.23
2022-12-29T08:59:30.056Z,31.67
2022-12-29T09:02:02.838Z,35.20
2022-12-29T09:04:38.653Z,33.43
2022-12-29T09:07:11.898Z,41.73
2022-12-29T09:09:51.740Z,32.57
2022-12-29T09:12:47.863Z,33.13
2022-12-29T09:15:13.973Z,32.90
2022-12-29T09:17:44.671Z,31.90
2022-12-29T09:20:15.625Z,31.93
2022-12-29T09:22:44.723Z,38.30
2022-12-29T09:25:14.240Z,29.83
2022-12-29T09:27:42.989Z,34.40
2022-12-29T09:30:15.455Z,30.50
2022-12-29T09:32:45.836Z,33.57
2022-12-29T09:35:19.209Z,32.67
2022-12-29T09:37:47.861Z,34.30
2022-12-29T09:40:31.545Z,37.37
2022-12-29T09:47:08.024Z,32.57
2022-12-29T09:52:59.928Z,34.17
2022-12-29T09:55:45.329Z,35.67
2022-12-29T09:58:42.898Z,38.20
2022-12-29T10:01:46.562Z,32.07
2022-12-29T10:14:18.920Z,32.30
2022-12-29T10:24:09.176Z,31.30
2022-12-29T10:33:06.341Z,30.80
2022-12-29T10:37:00.865Z,35.97
2022-12-29T10:39:30.785Z,35.57
2022-12-29T10:42:38.344Z,37.17
2022-12-29T10:45:08.445Z,32.30
2022-12-29T10:47:40.026Z,32.20
2022-12-29T10:50:09.397Z,30.40
2022-12-29T10:52:56.844Z,32.80
2022-12-29T11:05:20.079Z,35.33
2022-12-29T11:11:00.440Z,30.47
2022-12-29T11:14:00.515Z,36.27
2022-12-29T11:16:55.585Z,33.67
2022-12-29T11:29:32.639Z,33.03
2022-12-29T11:35:41.174Z,35.67
2022-12-29T11:45:41.506Z,34.60
2022-12-29T11:56:45.050Z,29.60
2022-12-29T12:01:47.726Z,27.00
2022-12-29T12:04:28.336Z,33.20
2022-12-29T12:07:15.937Z,30.57
2022-12-29T12:09:50.675Z,28.93
2022-12-29T12:12:30.027Z,29.03
2022-12-29T12:15:01.019Z,29.63
2022-12-29T12:17:37.332Z,31.85
2022-12-29T12:20:09.092Z,28.87
2022-12-29T12:22:48.849Z,31.07
2022-12-29T12:25:29.298Z,32.43
2022-12-29T12:28:09.912Z,28.77
2022-12-29T12:30:41.873Z,33.60
2022-12-29T12:33:16.641Z,32.00
2022-12-29T12:35:51.585Z,29.87
2022-12-29T12:38:44.676Z,32.97
2022-12-29T12:41:25.564Z,34.87
2022-12-29T12:44:06.232Z,33.73
2022-12-29T12:46:41.066Z,33.83
2022-12-29T12:49:44.478Z,32.20
2022-12-29T12:52:40.310Z,29.40
2022-12-29T12:55:31.286Z,28.60
2022-12-29T12:58:11.772Z,36.67
2022-12-29T13:00:46.084Z,30.55
2022-12-29T13:03:40.258Z,27.15
2022-12-29T13:06:27.137Z,30.75
2022-12-29T13:09:17.086Z,31.23
2022-12-29T13:12:13.033Z,27.37
2022-12-29T13:15:02.560Z,32.53
2022-12-29T13:17:34.275Z,32.53
2022-12-29T13:20:33.177Z,30.17
2022-12-29T13:23:21.384Z,28.83
2022-12-29T13:26:02.044Z,29.42
2022-12-29T13:28:42.529Z,29.05
2022-12-29T13:31:37.192Z,30.27
2022-12-29T13:34:28.837Z,34.83
2022-12-29T13:37:01.162Z,30.47
2022-12-29T13:39:42.032Z,35.75
2022-12-29T13:42:16.162Z,34.37
2022-12-29T13:45:05.589Z,28.97
2022-12-29T13:47:37.179Z,34.07
2022-12-29T13:50:09.178Z,32.73
2022-12-29T13:52:40.784Z,34.67
2022-12-29T13:55:29.188Z,30.73
2022-12-29T13:58:06.681Z,27.83
2022-12-29T14:00:40.946Z,35.23
2022-12-29T14:03:26.507Z,34.60
2022-12-29T14:06:06.555Z,33.20
2022-12-29T14:08:36.857Z,34.85
2022-12-29T14:11:08.437Z,39.67
2022-12-29T14:13:40.985Z,37.58
2022-12-29T14:16:12.874Z,45.37
2022-12-29T14:18:46.797Z,35.80
2022-12-29T14:21:26.441Z,36.93
2022-12-29T14:23:55.428Z,32.60
2022-12-29T14:26:36.500Z,39.40
2022-12-29T14:29:27.819Z,41.27
2022-12-29T14:31:56.893Z,37.00
2022-12-29T14:34:31.252Z,42.10
2022-12-29T14:37:04.208Z,47.20
2022-12-29T14:42:43.008Z,40.30
2022-12-29T14:45:23.182Z,41.47
2022-12-29T14:47:55.591Z,47.23
2022-12-29T14:50:36.246Z,47.80
2022-12-29T14:53:08.139Z,37.07
2022-12-29T14:55:59.207Z,41.83
2022-12-29T14:58:36.514Z,46.00
2022-12-29T15:01:05.381Z,46.20
2022-12-29T15:03:41.157Z,49.23
2022-12-29T15:06:16.816Z,50.43
2022-12-29T15:09:25.583Z,47.37
2022-12-29T15:17:55.830Z,48.53
2022-12-29T15:20:32.690Z,44.87
2022-12-29T15:26:34.861Z,51.63
2022-12-29T15:35:43.257Z,52.00
2022-12-29T15:38:42.953Z,55.83
2022-12-29T15:42:46.763Z,53.73
2022-12-29T15:48:02.425Z,55.53
2022-12-29T15:57:05.366Z,53.70
2022-12-29T16:06:04.008Z,49.17
2022-12-29T16:08:41.134Z,56.43
2022-12-29T16:11:31.291Z,57.03
2022-12-29T16:14:07.838Z,50.23
2022-12-29T16:16:39.815Z,65.27
2022-12-29T16:19:15.406Z,66.23
2022-12-29T16:21:53.282Z,57.30
2022-12-29T16:24:38.151Z,52.80
2022-12-29T16:27:25.522Z,65.93
2022-12-29T16:30:00.483Z,68.50
2022-12-29T16:32:39.437Z,61.77
2022-12-29T16:35:44.385Z,59.60
2022-12-29T16:39:05.771Z,59.07
2022-12-29T16:44:32.894Z,64.33
2022-12-29T16:47:25.574Z,61.47
2022-12-29T16:55:56.652Z,102.80
2022-12-29T17:01:30.634Z,122.67
2022-12-29T17:04:19.856Z,139.73
2022-12-29T17:10:07.074Z,130.10
2022-12-29T17:12:55.660Z,144.07
2022-12-29T17:15:45.274Z,131.47
2022-12-29T17:18:33.658Z,131.73
2022-12-29T17:21:26.955Z,129.93
2022-12-29T17:30:20.261Z,123.20
2022-12-29T17:33:10.061Z,91.20
2022-12-29T17:42:09.176Z,87.60
2022-12-29T17:48:30.548Z,93.07
2022-12-29T17:53:59.739Z,92.83
2022-12-29T18:06:20.731Z,115.67
2022-12-29T18:09:01.719Z,109.53
2022-12-29T18:11:49.637Z,105.73
2022-12-29T18:14:29.876Z,108.03
2022-12-29T18:17:00.632Z,106.30
2022-12-29T18:22:49.547Z,93.77
2022-12-29T18:31:50.124Z,96.73
2022-12-29T18:34:24.691Z,88.63
2022-12-29T18:43:38.539Z,91.97
2022-12-29T18:49:02.720Z,100.03
2022-12-29T18:51:54.600Z,101.37
2022-12-29T18:57:49.825Z,93.17
2022-12-29T19:00:21.337Z,90.00
2022-12-29T19:02:55.051Z,93.07
2022-12-29T19:07:40.570Z,84.80
2022-12-29T19:08:32.222Z,78.20
2022-12-29T19:11:09.306Z,78.30
2022-12-29T19:13:54.826Z,87.77
2022-12-29T19:16:26.332Z,85.20
2022-12-29T19:19:09.228Z,83.37
2022-12-29T19:21:28.237Z,81.93
2022-12-29T19:23:57.416Z,78.23
2022-12-29T19:26:36.249Z,76.00
2022-12-29T19:29:06.644Z,70.17
2022-12-29T19:31:36.053Z,71.37
2022-12-29T19:34:04.959Z,73.17
2022-12-29T19:36:40.903Z,79.50
2022-12-29T19:39:09.741Z,69.07
2022-12-29T19:41:39.114Z,66.03
2022-12-29T19:44:08.597Z,72.17
2022-12-29T19:46:41.874Z,80.73
2022-12-29T19:49:13.045Z,55.83
2022-12-29T19:54:33.580Z,67.60
2022-12-29T20:00:03.746Z,68.37
2022-12-29T20:02:35.465Z,81.67
2022-12-29T20:05:04.761Z,81.73
2022-12-29T20:07:33.895Z,77.57
2022-12-29T20:10:03.393Z,78.77
2022-12-29T20:12:33.397Z,62.20
2022-12-29T20:20:49.184Z,72.63
2022-12-29T20:23:18.001Z,62.70
2022-12-29T20:25:47.696Z,65.30
2022-12-29T20:28:17.121Z,60.13
2022-12-29T20:30:46.313Z,65.90
2022-12-29T20:33:25.967Z,62.57
2022-12-29T20:35:55.109Z,62.50
2022-12-29T20:38:23.987Z,67.27
2022-12-29T20:43:48.392Z,65.90
2022-12-29T20:53:21.028Z,75.37
2022-12-29T20:59:29.036Z,102.60
2022-12-29T21:08:48.377Z,82.90
2022-12-29T21:11:18.651Z,73.87
2022-12-29T21:13:47.492Z,92.07
2022-12-29T21:16:19.115Z,110.00
2022-12-29T21:18:51.411Z,100.97
2022-12-29T21:21:23.376Z,113.30
2022-12-29T21:23:55.960Z,118.27
2022-12-29T21:26:26.039Z,121.43
2022-12-29T21:28:56.425Z,127.97
2022-12-29T21:31:36.356Z,132.37
2022-12-29T21:34:09.715Z,135.37
2022-12-29T21:36:41.680Z,131.60
2022-12-29T21:39:11.785Z,144.67
2022-12-29T21:41:42.350Z,137.83
2022-12-29T21:44:30.467Z,134.53
2022-12-29T21:47:00.415Z,128.67
2022-12-29T21:49:31.761Z,118.90
2022-12-29T21:52:03.408Z,132.03
2022-12-29T21:54:56.591Z,127.40
2022-12-29T21:57:48.512Z,132.23
2022-12-29T22:00:35.216Z,133.33
2022-12-29T22:03:30.935Z,135.67
2022-12-29T22:06:20.137Z,133.63
2022-12-29T22:09:12.035Z,131.23
2022-12-29T22:11:58.779Z,129.70
2022-12-29T22:14:27.431Z,120.80
2022-12-29T22:17:14.443Z,129.73
2022-12-29T22:19:42.947Z,119.13
2022-12-29T22:22:11.527Z,132.50
2022-12-29T22:24:40.111Z,108.30
2022-12-29T22:27:08.866Z,103.80
2022-12-29T22:29:37.495Z,99.13
2022-12-29T22:32:06.302Z,90.37
2022-12-29T22:34:34.973Z,89.90
2022-12-29T22:37:03.677Z,85.37
2022-12-29T22:39:32.284Z,84.13
2022-12-29T22:42:00.915Z,81.70
2022-12-29T22:44:29.568Z,71.73
2022-12-29T22:47:00.389Z,73.33
2022-12-29T22:49:29.523Z,72.33
2022-12-29T22:51:58.080Z,70.73
2022-12-29T22:54:26.975Z,78.00
2022-12-29T22:56:55.617Z,68.57
2022-12-29T22:59:26.101Z,75.77
2022-12-29T23:01:55.052Z,82.30
2022-12-29T23:05:01.896Z,75.63
2022-12-29T23:06:54.210Z,87.50
2022-12-29T23:09:24.090Z,86.03
2022-12-29T23:11:53.515Z,84.17
2022-12-29T23:14:22.168Z,82.07
2022-12-29T23:16:50.739Z,90.63
2022-12-29T23:19:19.536Z,84.10
2022-12-29T23:21:48.134Z,88.10
2022-12-29T23:24:16.828Z,91.10
2022-12-29T23:26:48.264Z,94.87
2022-12-29T23:29:19.613Z,95.93
2022-12-29T23:31:54.570Z,92.33
2022-12-29T23:34:22.611Z,98.70
2022-12-29T23:36:51.544Z,100.63
2022-12-29T23:39:24.572Z,97.53
2022-12-29T23:41:54.053Z,92.63
2022-12-29T23:44:22.724Z,97.63
2022-12-29T23:46:51.484Z,94.57
2022-12-29T23:49:20.190Z,98.33
2022-12-29T23:51:48.826Z,99.00
2022-12-29T23:54:19.257Z,97.80
2022-12-29T23:56:48.132Z,99.73
2022-12-29T23:59:16.924Z,106.37
